Time;durP1;ratioP1;P1;durP2;ratioP2;P2;SDS_P1;SDS_P2;PMS_P1;PMS_P2;Temp;Humidity;BMP_temperature;BMP_pressure;BME280_temperature;BME280_humidity;BME280_pressure;Samples;Min_cycle;Max_cycle;Signal;HPM_P1;HPM_P2
2022/03/11 00:02:26;;;;;;;17.83;8.35;;;;;;;3.29;28.27;102447.00;5025646;28;20046;-75
2022/03/11 00:04:52;;;;;;;18.42;8.60;;;;;;;3.38;27.91;102443.06;5014279;28;20046;-74
2022/03/11 00:07:19;;;;;;;19.83;8.10;;;;;;;3.04;28.11;102435.78;5028193;28;20049;-74
2022/03/11 00:09:45;;;;;;;19.30;8.63;;;;;;;3.06;28.13;102436.56;5015231;28;20100;-74
2022/03/11 00:12:12;;;;;;;19.35;8.10;;;;;;;2.95;28.23;102438.84;5017014;28;20104;-74
2022/03/11 00:14:39;;;;;;;19.65;8.82;;;;;;;3.18;28.01;102436.03;5016478;28;20105;-74
2022/03/11 00:17:06;;;;;;;19.00;8.35;;;;;;;3.24;27.88;102437.50;5028417;28;20101;-74
2022/03/11 00:19:33;;;;;;;21.48;8.27;;;;;;;3.24;28.00;102435.75;5032839;28;20477;-74
2022/03/11 00:22:00;;;;;;;19.42;7.95;;;;;;;3.29;27.54;102433.72;5013739;28;20100;-74
2022/03/11 00:24:26;;;;;;;17.33;7.82;;;;;;;3.09;28.04;102425.81;5014589;28;20100;-74
2022/03/11 00:26:53;;;;;;;21.60;8.80;;;;;;;2.45;28.92;102429.53;5013662;28;20111;-74
2022/03/11 00:29:19;;;;;;;26.38;8.75;;;;;;;2.56;29.04;102447.63;5021431;28;20089;-74
2022/03/11 00:31:46;;;;;;;22.30;8.50;;;;;;;2.61;28.67;102435.03;5029429;28;20072;-74
2022/03/11 00:34:13;;;;;;;21.17;8.25;;;;;;;2.84;28.83;102434.88;5034352;28;20045;-74
2022/03/11 00:36:40;;;;;;;22.30;8.82;;;;;;;3.20;27.91;102433.28;5031285;28;20088;-74
2022/03/11 00:39:08;;;;;;;23.67;8.65;;;;;;;3.26;28.36;102441.81;5013324;28;20551;-74
2022/03/11 00:41:34;;;;;;;20.13;8.05;;;;;;;2.80;28.08;102449.19;5013010;28;20461;-74
2022/03/11 00:44:00;;;;;;;20.05;9.10;;;;;;;2.89;28.31;102434.66;5026328;28;20077;-74
2022/03/11 00:46:27;;;;;;;23.67;8.82;;;;;;;2.81;28.24;102435.00;5014011;28;20080;-74
2022/03/11 00:48:54;;;;;;;18.55;8.18;;;;;;;2.70;28.48;102442.56;5022234;28;20049;-74
2022/03/11 00:51:20;;;;;;;18.83;8.45;;;;;;;2.50;28.63;102435.47;5025380;28;20110;-74
2022/03/11 00:53:46;;;;;;;21.58;8.32;;;;;;;2.91;28.17;102436.31;5020582;28;20446;-74
2022/03/11 00:56:13;;;;;;;18.40;7.93;;;;;;;2.76;28.62;102429.06;5014373;28;20124;-74
2022/03/11 00:58:39;;;;;;;20.02;8.70;;;;;;;2.93;28.36;102428.31;5031718;28;20567;-74
2022/03/11 01:01:06;;;;;;;19.27;8.32;;;;;;;2.60;28.49;102425.34;5033208;28;20049;-74
2022/03/11 01:03:32;;;;;;;24.70;8.80;;;;;;;2.85;28.20;102422.47;5033535;28;20046;-74
2022/03/11 01:05:59;;;;;;;18.95;8.57;;;;;;;3.26;27.65;102414.44;5027651;28;20069;-74
2022/03/11 01:08:26;;;;;;;19.48;8.60;;;;;;;2.66;28.22;102423.31;5016428;28;20068;-74
2022/03/11 01:10:52;;;;;;;18.58;8.65;;;;;;;2.91;28.23;102424.88;5034042;28;20096;-74
2022/03/11 01:13:19;;;;;;;21.27;8.60;;;;;;;2.87;28.13;102421.50;5033243;28;20046;-74
2022/03/11 01:15:45;;;;;;;20.08;8.43;;;;;;;2.80;27.97;102419.19;5023100;28;20046;-74
2022/03/11 01:18:12;;;;;;;29.08;8.90;;;;;;;2.84;27.57;102412.81;5016389;28;20057;-75
2022/03/11 01:20:38;;;;;;;22.15;8.65;;;;;;;2.64;28.07;102421.63;5025758;28;20474;-75
2022/03/11 01:23:05;;;;;;;19.63;9.02;;;;;;;2.94;28.15;102422.06;5031152;28;20080;-74
2022/03/11 01:25:31;;;;;;;20.20;8.68;;;;;;;2.77;28.41;102416.66;5031759;28;20497;-74
2022/03/11 01:27:58;;;;;;;21.40;8.63;;;;;;;2.96;27.83;102411.38;5015332;28;20538;-74
2022/03/11 01:30:24;;;;;;;23.50;8.82;;;;;;;2.89;27.72;102411.69;5018174;28;20045;-74
2022/03/11 01:32:51;;;;;;;21.10;8.70;;;;;;;3.06;27.61;102416.19;5023489;28;20107;-74
2022/03/11 01:35:18;;;;;;;18.40;8.30;;;;;;;2.72;27.91;102419.53;5024171;28;20066;-74
2022/03/11 01:37:44;;;;;;;22.20;8.43;;;;;;;2.51;28.31;102418.69;5013463;28;20050;-74
2022/03/11 01:40:11;;;;;;;26.30;8.85;;;;;;;2.06;29.09;102416.16;5016221;28;20127;-74
2022/03/11 01:42:39;;;;;;;20.00;8.50;;;;;;;2.40;28.37;102411.16;5022795;28;20084;-74
2022/03/11 01:45:06;;;;;;;21.95;9.10;;;;;;;2.36;28.36;102412.22;5010102;28;20100;-74
2022/03/11 01:47:33;;;;;;;25.98;9.27;;;;;;;2.52;28.04;102416.88;5032364;28;20041;-74
2022/03/11 01:49:59;;;;;;;18.48;8.40;;;;;;;2.38;28.69;102415.69;5027161;28;20077;-74
2022/03/11 01:52:26;;;;;;;26.48;9.05;;;;;;;2.19;28.67;102412.09;5013237;28;20073;-74
2022/03/11 01:54:53;;;;;;;22.40;9.68;;;;;;;2.32;28.44;102410.66;5012571;28;20073;-74
2022/03/11 01:57:20;;;;;;;21.75;9.20;;;;;;;2.05;29.13;102411.81;5012139;28;20065;-75
2022/03/11 01:59:46;;;;;;;23.63;9.70;;;;;;;2.29;28.46;102410.78;5013394;28;20084;-74
2022/03/11 02:02:13;;;;;;;24.13;8.77;;;;;;;2.38;28.56;102404.25;5023595;28;20123;-74
2022/03/11 02:04:40;;;;;;;21.30;9.35;;;;;;;2.31;28.30;102408.06;4999615;28;20049;-74
2022/03/11 02:07:22;;;;;;;21.27;8.73;;;;;;;2.57;28.06;102413.09;5034135;28;20041;-74
2022/03/11 02:09:49;;;;;;;20.48;9.68;;;;;;;2.45;28.35;102402.19;5019614;28;20125;-74
2022/03/11 02:12:34;;;;;;;24.80;9.98;;;;;;;2.52;28.21;102414.25;5024602;28;20136;-74
2022/03/11 02:15:05;;;;;;;25.00;9.77;;;;;;;2.32;28.46;102401.84;5018707;28;20049;-74
2022/03/11 02:17:31;;;;;;;29.20;9.57;;;;;;;2.41;28.75;102396.16;5009161;28;20071;-74
2022/03/11 02:19:58;;;;;;;27.98;9.55;;;;;;;2.48;28.49;102399.38;5017840;28;20390;-74
2022/03/11 02:22:25;;;;;;;22.50;10.10;;;;;;;2.40;28.64;102392.63;5012132;28;20049;-75
2022/03/11 02:24:53;;;;;;;22.02;9.38;;;;;;;2.15;29.07;102390.19;5011829;28;20069;-74
2022/03/11 02:27:20;;;;;;;21.85;9.52;;;;;;;1.92;29.13;102388.50;5022175;28;20508;-74
2022/03/11 02:29:47;;;;;;;21.63;10.10;;;;;;;2.05;28.96;102386.19;5026551;28;20057;-74
2022/03/11 02:32:13;;;;;;;20.80;9.30;;;;;;;2.07;28.70;102391.44;5015295;28;20107;-74
2022/03/11 02:34:40;;;;;;;29.77;10.50;;;;;;;2.71;27.84;102382.47;5021460;28;20069;-73
2022/03/11 02:37:09;;;;;;;23.35;9.95;;;;;;;2.03;29.06;102387.19;5020627;28;20096;-73
2022/03/11 02:39:36;;;;;;;21.65;9.52;;;;;;;2.16;28.97;102383.94;5031379;28;20076;-74
2022/03/11 02:42:05;;;;;;;22.35;8.90;;;;;;;1.78;29.78;102390.78;5030644;28;20080;-74
2022/03/11 02:44:31;;;;;;;26.55;9.43;;;;;;;1.99;29.11;102396.16;5004384;28;20045;-73
2022/03/11 02:47:01;;;;;;;24.63;10.23;;;;;;;1.38;29.98;102387.09;5018802;28;20077;-73
2022/03/11 02:49:28;;;;;;;24.65;10.07;;;;;;;1.92;29.19;102391.16;5030775;28;20077;-74
2022/03/11 02:51:56;;;;;;;22.85;9.63;;;;;;;2.04;29.27;102391.56;5031612;28;20054;-74
2022/03/11 02:54:24;;;;;;;23.10;9.43;;;;;;;1.76;29.39;102384.72;5031660;28;20553;-74
2022/03/11 02:56:50;;;;;;;26.33;10.02;;;;;;;1.72;29.58;102383.13;5026071;28;20065;-74
2022/03/11 02:59:17;;;;;;;20.17;9.40;;;;;;;1.62;29.96;102381.78;5014893;28;20068;-74
2022/03/11 03:01:43;;;;;;;23.60;9.50;;;;;;;1.79;29.54;102381.09;5022346;28;20120;-74
2022/03/11 03:04:11;;;;;;;22.35;9.80;;;;;;;1.75;29.56;102385.66;5013855;28;20104;-74
2022/03/11 03:06:38;;;;;;;24.75;9.95;;;;;;;1.53;29.86;102382.13;5031300;28;20099;-73
2022/03/11 03:09:05;;;;;;;28.63;10.75;;;;;;;1.63;29.63;102367.63;5025436;28;20069;-73
2022/03/11 03:11:31;;;;;;;26.67;9.80;;;;;;;1.73;29.74;102379.56;5011296;28;20115;-73
2022/03/11 03:13:58;;;;;;;23.40;9.57;;;;;;;1.68;30.35;102374.47;5012020;28;20053;-73
2022/03/11 03:16:24;;;;;;;26.92;11.10;;;;;;;1.14;30.45;102377.47;5012270;28;20052;-72
2022/03/11 03:18:51;;;;;;;27.80;10.80;;;;;;;1.31;30.22;102375.06;5014965;28;20050;-73
2022/03/11 03:21:18;;;;;;;28.45;9.85;;;;;;;1.37;30.16;102373.94;5012544;28;20136;-72
2022/03/11 03:23:44;;;;;;;23.23;9.60;;;;;;;1.43;29.76;102381.63;5016339;28;20096;-72
2022/03/11 03:26:11;;;;;;;20.05;9.20;;;;;;;2.03;29.27;102373.97;5028337;28;20555;-73
2022/03/11 03:28:38;;;;;;;31.23;11.07;;;;;;;1.18;30.32;102376.44;5030012;28;20569;-73
2022/03/11 03:31:04;;;;;;;23.98;10.13;;;;;;;1.74;29.38;102373.31;5030425;28;20049;-73
2022/03/11 03:33:31;;;;;;;24.02;10.23;;;;;;;1.65;29.87;102365.78;5017683;28;20142;-74
2022/03/11 03:35:57;;;;;;;28.02;10.55;;;;;;;1.58;29.86;102372.25;5025635;28;20429;-74
2022/03/11 03:38:24;;;;;;;23.80;9.90;;;;;;;1.63;29.50;102372.91;5030822;28;20482;-73
2022/03/11 03:40:50;;;;;;;23.73;9.98;;;;;;;1.68;29.61;102384.16;5010562;28;20060;-73
2022/03/11 03:43:18;;;;;;;26.65;10.07;;;;;;;1.33;29.86;102374.97;5011384;28;20068;-73
2022/03/11 03:45:44;;;;;;;26.23;10.77;;;;;;;1.66;29.52;102376.28;5011405;28;20061;-73
2022/03/11 03:48:11;;;;;;;23.92;9.95;;;;;;;2.18;29.06;102382.09;5013695;28;20476;-73
2022/03/11 03:50:37;;;;;;;26.33;9.77;;;;;;;1.77;29.58;102370.56;5021198;28;20174;-72
2022/03/11 03:53:04;;;;;;;26.90;10.40;;;;;;;1.91;29.64;102376.13;5022033;28;20133;-72
2022/03/11 03:55:30;;;;;;;24.13;10.35;;;;;;;1.02;30.54;102384.06;5034442;28;20216;-72
2022/03/11 03:57:57;;;;;;;26.42;9.77;;;;;;;1.85;29.91;102381.69;5028578;28;20115;-73
2022/03/11 04:00:23;;;;;;;25.05;10.18;;;;;;;1.13;30.48;102378.41;5017477;28;20184;-72
2022/03/11 04:02:50;;;;;;;28.17;10.88;;;;;;;1.10;30.44;102374.09;5034320;28;20432;-73
2022/03/11 04:05:18;;;;;;;31.23;9.68;;;;;;;0.44;31.29;102378.28;5032752;28;20049;-73
2022/03/11 04:07:46;;;;;;;27.30;9.68;;;;;;;0.84;31.11;102377.69;5027728;28;20073;-73
2022/03/11 04:10:14;;;;;;;25.42;10.35;;;;;;;1.11;30.93;102381.09;5031814;28;20073;-73
2022/03/11 04:12:40;;;;;;;21.77;9.95;;;;;;;1.29;30.49;102374.22;5013676;28;20068;-73
2022/03/11 04:15:08;;;;;;;25.45;10.88;;;;;;;0.77;31.21;102373.56;5020870;28;20454;-73
2022/03/11 04:17:34;;;;;;;33.13;10.55;;;;;;;1.25;30.21;102377.94;5031423;28;20084;-72
2022/03/11 04:20:01;;;;;;;24.33;10.20;;;;;;;0.58;31.43;102373.38;5022719;28;20405;-73
2022/03/11 04:22:27;;;;;;;24.70;10.70;;;;;;;0.85;31.13;102374.16;5025909;28;20099;-72
2022/03/11 04:24:53;;;;;;;27.55;10.70;;;;;;;0.73;31.05;102358.75;5034693;28;20401;-72
2022/03/11 04:27:21;;;;;;;24.40;9.65;;;;;;;0.93;31.34;102360.66;5032851;28;20481;-73
2022/03/11 04:29:47;;;;;;;23.40;10.55;;;;;;;0.67;31.37;102366.88;5018751;28;20072;-72
2022/03/11 04:32:14;;;;;;;25.83;9.98;;;;;;;0.25;32.20;102357.81;5015796;28;20074;-72
2022/03/11 04:34:40;;;;;;;24.67;10.45;;;;;;;1.04;31.29;102368.19;5033517;28;20461;-72
2022/03/11 04:37:07;;;;;;;34.42;10.20;;;;;;;0.24;31.97;102365.78;5025775;28;20133;-72
2022/03/11 04:39:33;;;;;;;25.13;9.75;;;;;;;0.81;31.14;102366.38;5013425;28;20066;-73
2022/03/11 04:42:00;;;;;;;27.73;10.73;;;;;;;0.62;31.29;102369.72;5026967;28;20095;-72
2022/03/11 04:44:30;;;;;;;35.47;10.52;;;;;;;0.80;31.42;102357.59;5029697;28;20192;-72
2022/03/11 04:46:56;;;;;;;26.73;10.10;;;;;;;0.39;31.74;102357.31;5028575;28;20081;-72
2022/03/11 04:49:23;;;;;;;24.50;10.68;;;;;;;0.10;31.76;102352.19;5017034;28;20062;-72
2022/03/11 04:51:49;;;;;;;30.02;10.07;;;;;;;0.17;32.26;102356.34;5015790;28;20490;-73
2022/03/11 04:54:16;;;;;;;23.88;10.90;;;;;;;0.22;32.06;102351.75;5022913;28;20073;-73
2022/03/11 04:56:42;;;;;;;25.13;11.18;;;;;;;0.68;31.51;102358.94;5013476;28;20465;-73
2022/03/11 04:59:09;;;;;;;28.70;11.48;;;;;;;0.94;31.28;102350.00;5019595;28;20861;-72
2022/03/11 05:01:36;;;;;;;23.30;10.20;;;;;;;0.45;31.75;102358.88;5017407;28;20128;-72
2022/03/11 05:04:02;;;;;;;27.35;10.35;;;;;;;0.51;31.60;102356.03;5019412;28;20465;-73
2022/03/11 05:06:29;;;;;;;24.25;11.00;;;;;;;0.49;31.58;102348.16;5017377;28;20062;-73
2022/03/11 05:08:55;;;;;;;28.17;10.48;;;;;;;0.05;32.01;102358.50;5023020;28;20057;-73
2022/03/11 05:11:22;;;;;;;28.33;10.60;;;;;;;-0.12;32.32;102365.25;5017436;28;20107;-73
2022/03/11 05:13:48;;;;;;;30.65;11.88;;;;;;;0.24;31.97;102365.78;5022850;28;20104;-73
2022/03/11 05:16:15;;;;;;;28.92;11.35;;;;;;;0.28;32.19;102359.47;5023855;28;20053;-73
2022/03/11 05:18:47;;;;;;;26.98;10.95;;;;;;;0.87;31.11;102363.53;5033811;28;20041;-73
2022/03/11 05:21:13;;;;;;;31.20;11.15;;;;;;;0.55;31.39;102365.56;5027952;28;20121;-72
2022/03/11 05:23:39;;;;;;;31.40;11.45;;;;;;;0.55;32.02;102359.44;5019661;28;20065;-73
2022/03/11 05:26:24;;;;;;;30.88;11.23;;;;;;;0.20;32.55;102364.16;5021420;28;20505;-72
2022/03/11 05:28:53;;;;;;;26.55;11.15;;;;;;;0.80;31.20;102357.59;5028723;28;20103;-73
2022/03/11 05:31:19;;;;;;;34.03;11.45;;;;;;;0.29;31.72;102364.72;5014328;28;20088;-73
2022/03/11 05:33:47;;;;;;;30.08;11.15;;;;;;;0.44;31.46;102365.94;5002668;28;20046;-73
2022/03/11 05:36:14;;;;;;;35.90;11.15;;;;;;;-0.57;33.56;102366.69;5025052;28;20069;-73
2022/03/11 05:38:41;;;;;;;25.77;11.02;;;;;;;-0.04;32.53;102366.72;5013128;28;20142;-73
2022/03/11 05:41:11;;;;;;;32.55;12.70;;;;;;;-0.00;32.91;102367.47;5020959;28;20046;-73
2022/03/11 05:43:38;;;;;;;29.92;11.85;;;;;;;0.17;32.23;102369.56;5027347;28;20073;-73
2022/03/11 05:46:05;;;;;;;28.65;12.07;;;;;;;0.16;32.39;102355.50;5012484;28;20070;-73
2022/03/11 05:48:32;;;;;;;29.00;11.60;;;;;;;0.21;32.17;102364.09;5021855;28;20046;-73
2022/03/11 05:51:03;;;;;;;26.48;11.10;;;;;;;-0.17;33.01;102360.13;5032801;28;20056;-73
2022/03/11 05:53:29;;;;;;;28.10;11.25;;;;;;;0.13;32.34;102363.50;5023126;28;20123;-73
2022/03/11 05:55:56;;;;;;;24.02;11.98;;;;;;;-0.08;32.32;102373.03;5020019;28;20147;-73
2022/03/11 05:58:23;;;;;;;28.42;11.95;;;;;;;-0.10;32.72;102366.06;5032121;28;20037;-73
2022/03/11 06:00:49;;;;;;;28.17;12.05;;;;;;;0.16;32.25;102373.13;5032215;28;20073;-73
2022/03/11 06:03:16;;;;;;;29.70;10.82;;;;;;;-0.44;33.04;102373.28;5031001;28;20400;-73
2022/03/11 06:05:43;;;;;;;26.92;12.23;;;;;;;0.12;32.69;102368.81;5020592;28;20045;-73
2022/03/11 06:08:09;;;;;;;26.20;11.57;;;;;;;0.03;32.32;102383.22;5011758;28;20081;-73
2022/03/11 06:10:36;;;;;;;31.05;12.38;;;;;;;0.03;32.48;102381.44;5012558;28;20038;-73
2022/03/11 06:13:02;;;;;;;31.52;11.63;;;;;;;-0.14;32.45;102380.28;5025551;28;20049;-73
2022/03/11 06:15:29;;;;;;;35.88;12.13;;;;;;;0.03;32.53;102377.94;5031277;28;20539;-72
2022/03/11 06:17:55;;;;;;;32.83;12.32;;;;;;;-0.01;32.17;102384.22;5031196;28;20378;-73
2022/03/11 06:20:22;;;;;;;29.55;12.40;;;;;;;0.48;31.69;102382.53;5031204;28;20481;-73
2022/03/11 06:22:50;;;;;;;32.15;11.85;;;;;;;0.37;31.08;102388.22;5020072;28;20490;-73
2022/03/11 06:25:17;;;;;;;30.15;11.88;;;;;;;0.45;31.68;102390.56;5013059;28;20075;-73
2022/03/11 06:27:45;;;;;;;28.75;11.75;;;;;;;0.51;31.18;102385.94;5014323;28;20383;-73
2022/03/11 06:30:12;;;;;;;33.00;11.98;;;;;;;0.68;30.93;102390.63;5029556;28;20084;-71
2022/03/11 06:32:41;;;;;;;31.58;12.13;;;;;;;1.43;29.87;102395.72;5024454;28;20042;-72
2022/03/11 06:35:08;;;;;;;29.75;11.55;;;;;;;1.12;30.10;102396.03;5029935;28;20073;-71
2022/03/11 06:37:34;;;;;;;36.80;12.85;;;;;;;0.53;31.08;102384.09;5013498;28;20085;-72
2022/03/11 06:40:01;;;;;;;30.60;11.95;;;;;;;0.86;30.34;102381.16;5014493;28;20124;-72
2022/03/11 06:42:39;;;;;;;31.05;11.55;;;;;;;1.24;29.98;102395.56;5026212;28;20053;-71
2022/03/11 06:45:08;;;;;;;31.55;12.40;;;;;;;0.39;31.10;102382.84;5022895;28;20045;-71
2022/03/11 06:47:34;;;;;;;29.17;11.48;;;;;;;0.79;30.19;102400.78;5032225;28;20489;-71
2022/03/11 06:50:03;;;;;;;23.67;10.77;;;;;;;0.83;30.28;102397.13;5017657;28;20104;-72
2022/03/11 06:52:30;;;;;;;29.63;12.57;;;;;;;0.87;30.30;102390.81;5012044;28;20121;-72
2022/03/11 06:54:56;;;;;;;29.92;12.52;;;;;;;1.19;29.97;102392.22;5012387;28;20166;-73
2022/03/11 06:57:23;;;;;;;27.30;11.52;;;;;;;1.25;29.84;102393.78;5016295;28;20413;-72
2022/03/11 06:59:50;;;;;;;29.48;12.52;;;;;;;0.73;30.13;102395.72;5022337;28;20061;-73
2022/03/11 07:02:17;;;;;;;26.40;11.60;;;;;;;1.65;29.35;102392.25;5032290;28;20049;-73
2022/03/11 07:04:44;;;;;;;30.15;11.57;;;;;;;2.06;28.47;102395.00;5026295;28;20133;-72
2022/03/11 07:07:10;;;;;;;27.00;11.23;;;;;;;1.58;28.69;102388.13;5030676;28;20145;-72
2022/03/11 07:09:37;;;;;;;28.17;11.18;;;;;;;1.96;28.55;102399.81;5021100;28;20405;-73
2022/03/11 07:12:04;;;;;;;30.75;11.73;;;;;;;3.01;27.38;102396.16;5012818;28;20471;-73
2022/03/11 07:14:33;;;;;;;30.75;12.43;;;;;;;2.28;27.40;102398.47;5022566;28;20045;-72
2022/03/11 07:17:00;;;;;;;32.63;11.93;;;;;;;2.30;27.58;102391.31;5023424;28;20191;-72
2022/03/11 07:19:27;;;;;;;33.72;12.23;;;;;;;3.27;26.14;102390.47;5012588;28;20049;-73
2022/03/11 07:21:54;;;;;;;26.92;12.05;;;;;;;3.93;25.33;102386.44;5024855;28;20060;-73
2022/03/11 07:24:21;;;;;;;28.02;11.30;;;;;;;3.23;25.18;102391.56;5030713;28;20045;-74
2022/03/11 07:26:48;;;;;;;33.40;12.18;;;;;;;4.03;24.47;102391.22;5031210;28;20520;-73
2022/03/11 07:29:15;;;;;;;37.63;11.88;;;;;;;3.84;24.95;102391.28;5032411;28;20481;-73
2022/03/11 07:31:42;;;;;;;28.38;12.27;;;;;;;3.62;24.72;102395.94;5023788;28;20046;-72
2022/03/11 07:34:08;;;;;;;28.20;11.77;;;;;;;4.79;24.20;102402.38;5028191;28;20124;-74
2022/03/11 07:36:35;;;;;;;24.58;10.90;;;;;;;5.93;22.89;102396.09;5017705;28;20069;-74
2022/03/11 07:39:03;;;;;;;25.83;11.15;;;;;;;4.61;23.90;102384.75;5021759;28;20053;-74
2022/03/11 07:41:29;;;;;;;25.60;12.25;;;;;;;4.12;24.55;102389.06;5019970;28;20080;-74
2022/03/11 07:43:56;;;;;;;27.35;10.80;;;;;;;4.79;23.62;102391.75;5010018;28;20049;-74
2022/03/11 07:46:39;;;;;;;27.52;12.25;;;;;;;4.03;24.39;102399.19;5029968;28;20053;-74
2022/03/11 07:49:05;;;;;;;31.10;12.00;;;;;;;4.15;24.08;102388.91;5030386;28;20084;-74
2022/03/11 07:51:32;;;;;;;28.85;11.55;;;;;;;5.84;22.63;102388.66;5031269;28;20065;-74
2022/03/11 07:53:58;;;;;;;30.70;12.73;;;;;;;5.19;23.00;102388.75;5030127;28;20072;-74
2022/03/11 07:56:25;;;;;;;28.75;11.18;;;;;;;4.93;23.01;102393.66;5021468;28;20088;-74
2022/03/11 07:58:54;;;;;;;27.83;11.30;;;;;;;3.76;24.20;102392.56;5015930;28;20080;-74
2022/03/11 08:01:21;;;;;;;29.45;11.88;;;;;;;4.14;24.10;102396.00;5031433;28;20456;-73
2022/03/11 08:03:47;;;;;;;32.63;12.07;;;;;;;6.01;21.98;102393.84;5017192;28;20433;-74
2022/03/11 08:06:14;;;;;;;28.85;11.20;;;;;;;6.28;21.21;102398.53;5010192;28;20061;-73
2022/03/11 08:08:44;;;;;;;26.02;10.95;;;;;;;6.26;21.33;102397.78;5008993;28;20092;-74
2022/03/11 08:11:11;;;;;;;25.33;11.13;;;;;;;7.15;20.29;102388.69;5013156;28;20081;-72
2022/03/11 08:13:37;;;;;;;24.15;11.02;;;;;;;6.88;20.66;102387.75;5031451;28;20080;-72
2022/03/11 08:16:07;;;;;;;25.05;10.73;;;;;;;7.10;20.17;102379.25;5030626;28;20048;-73
2022/03/11 08:18:35;;;;;;;28.13;10.93;;;;;;;6.46;20.73;102384.97;5030997;28;20050;-73
2022/03/11 08:21:03;;;;;;;22.77;11.18;;;;;;;6.78;20.72;102394.63;5030497;28;20076;-74
2022/03/11 08:23:30;;;;;;;26.75;11.38;;;;;;;6.09;21.33;102380.06;5028018;28;20049;-74
2022/03/11 08:25:56;;;;;;;22.38;10.90;;;;;;;7.22;19.73;102377.59;5014323;28;20474;-73
2022/03/11 08:28:24;;;;;;;29.13;11.35;;;;;;;7.03;20.02;102378.78;5017179;28;20081;-74
2022/03/11 08:30:50;;;;;;;29.52;11.77;;;;;;;7.21;19.59;102376.75;5023696;28;20154;-74
2022/03/11 08:33:20;;;;;;;23.10;10.38;;;;;;;7.85;18.97;102372.59;5021985;28;20038;-74
2022/03/11 08:36:09;;;;;;;36.00;10.50;;;;;;;7.33;18.89;102377.81;4982544;28;20049;-74
2022/03/11 08:38:39;;;;;;;31.83;11.20;;;;;;;7.33;19.14;102375.13;5019598;28;20057;-74
2022/03/11 08:41:08;;;;;;;24.40;11.38;;;;;;;8.14;18.09;102362.63;5030326;28;20156;-74
2022/03/11 08:43:38;;;;;;;26.98;11.00;;;;;;;7.78;18.86;102371.28;5033716;28;20049;-74
2022/03/11 08:46:07;;;;;;;24.60;11.07;;;;;;;7.81;18.59;102370.19;5026907;28;20497;-74
2022/03/11 08:48:35;;;;;;;24.33;11.13;;;;;;;8.54;17.88;102375.94;5016696;28;20392;-75
2022/03/11 08:51:02;;;;;;;34.08;11.23;;;;;;;8.20;18.50;102373.88;5032194;28;20099;-75
2022/03/11 08:53:28;;;;;;;22.63;11.77;;;;;;;9.39;16.96;102373.47;5004726;28;20061;-75
2022/03/11 08:55:55;;;;;;;28.20;10.95;;;;;;;9.79;16.96;102386.63;5014013;28;20066;-73
2022/03/11 08:58:21;;;;;;;22.50;11.27;;;;;;;7.65;18.24;102365.88;5012566;28;20104;-74
2022/03/11 09:00:48;;;;;;;31.70;11.15;;;;;;;8.51;17.56;102380.66;5013413;28;20069;-75
2022/03/11 09:03:15;;;;;;;33.72;11.43;;;;;;;7.98;18.15;102374.44;5032800;28;20083;-75
2022/03/11 09:05:41;;;;;;;24.08;10.73;;;;;;;9.26;17.08;102378.00;5033392;28;20053;-74
2022/03/11 09:08:08;;;;;;;24.30;10.93;;;;;;;8.78;17.06;102368.03;5034349;28;20091;-73
2022/03/11 09:10:35;;;;;;;24.90;11.38;;;;;;;9.14;17.24;102379.75;5032668;28;20500;-75
2022/03/11 09:13:03;;;;;;;23.80;11.18;;;;;;;8.97;16.97;102372.91;5034237;28;20103;-74
2022/03/11 09:15:30;;;;;;;26.38;10.35;;;;;;;8.94;16.75;102377.63;5033769;28;20046;-74
2022/03/11 09:17:56;;;;;;;21.73;10.63;;;;;;;8.60;17.27;102374.63;5031379;28;20085;-73
2022/03/11 09:20:23;;;;;;;23.30;10.70;;;;;;;8.99;17.09;102370.09;5013215;28;20469;-74
2022/03/11 09:22:57;;;;;;;33.58;11.13;;;;;;;9.11;16.51;102369.25;5011799;28;20386;-73
2022/03/11 09:25:24;;;;;;;30.88;10.32;;;;;;;8.30;17.22;102377.63;5013103;28;20042;-74
2022/03/11 09:27:51;;;;;;;22.70;10.90;;;;;;;8.58;16.89;102380.13;5012910;28;20096;-75
2022/03/11 09:30:17;;;;;;;25.77;10.38;;;;;;;8.39;17.21;102385.00;5011461;28;20046;-74
2022/03/11 09:32:44;;;;;;;28.00;11.73;;;;;;;8.37;17.37;102384.28;5010461;28;20478;-75
2022/03/11 09:35:12;;;;;;;25.73;10.75;;;;;;;8.32;17.17;102379.22;5014167;28;20447;-74
2022/03/11 09:37:39;;;;;;;31.90;11.02;;;;;;;8.59;17.46;102368.44;5014608;28;20100;-75
2022/03/11 09:40:07;;;;;;;24.27;11.55;;;;;;;7.85;17.71;102369.09;5014507;28;20467;-75
2022/03/11 09:42:33;;;;;;;26.15;10.45;;;;;;;9.27;16.59;102366.38;5013411;28;20551;-74
2022/03/11 09:45:00;;;;;;;29.70;10.27;;;;;;;10.18;15.61;102365.81;5015792;28;20069;-74
2022/03/11 09:47:26;;;;;;;19.20;11.02;;;;;;;9.64;16.09;102356.44;5020143;28;20552;-74
2022/03/11 09:49:53;;;;;;;20.48;11.05;;;;;;;10.79;15.24;102357.50;5015142;28;20066;-74
2022/03/11 09:52:20;;;;;;;28.10;11.82;;;;;;;10.20;15.33;102358.50;5029975;28;20130;-74
2022/03/11 09:54:47;;;;;;;21.58;10.85;;;;;;;10.40;15.41;102365.84;5027195;28;20050;-75
2022/03/11 09:57:23;;;;;;;19.38;10.40;;;;;;;9.70;15.64;102373.91;5012238;28;20088;-75
2022/03/11 09:59:51;;;;;;;23.27;11.52;;;;;;;10.23;15.44;102364.47;5008836;28;20050;-73
2022/03/11 10:02:23;;;;;;;21.73;10.63;;;;;;;10.22;15.49;102353.88;5012604;28;20468;-74
2022/03/11 10:04:52;;;;;;;25.73;11.38;;;;;;;10.53;15.15;102354.22;5026397;28;20041;-74
2022/03/11 10:07:38;;;;;;;23.40;10.40;;;;;;;11.01;14.88;102354.00;5032704;28;20045;-74
2022/03/11 10:10:17;;;;;;;25.40;10.48;;;;;;;10.36;15.13;102364.38;5032474;28;20041;-75
2022/03/11 10:13:03;;;;;;;21.70;10.90;;;;;;;10.44;14.92;102337.84;5032290;28;20053;-75
2022/03/11 10:15:29;;;;;;;28.73;11.07;;;;;;;9.73;15.96;102361.13;5021655;28;20456;-73
2022/03/11 10:17:57;;;;;;;21.90;11.45;;;;;;;8.14;16.94;102346.56;5019152;28;20076;-74
2022/03/11 10:20:25;;;;;;;20.38;10.57;;;;;;;8.54;17.05;102356.38;5030758;28;20466;-74
2022/03/11 10:22:52;;;;;;;21.08;10.38;;;;;;;8.52;16.51;102344.91;5019292;28;20045;-73
2022/03/11 10:25:21;;;;;;;22.92;10.20;;;;;;;9.22;16.08;102350.56;5012688;28;20077;-73
2022/03/11 10:28:03;;;;;;;20.67;11.00;;;;;;;10.01;15.45;102353.69;5023336;28;20072;-73
2022/03/11 10:30:32;;;;;;;24.30;11.02;;;;;;;9.56;15.89;102345.44;5015506;28;20045;-73
2022/03/11 10:33:02;;;;;;;24.95;11.48;;;;;;;10.40;14.93;102338.19;5031453;28;20545;-73
2022/03/11 10:35:31;;;;;;;25.33;10.25;;;;;;;9.31;15.75;102343.75;5031210;28;20049;-73
2022/03/11 10:38:00;;;;;;;26.63;11.00;;;;;;;9.08;15.87;102343.53;5032130;28;20494;-73
2022/03/11 10:40:31;;;;;;;22.67;10.60;;;;;;;10.01;15.54;102334.91;5031182;28;20045;-73
2022/03/11 10:43:16;;;;;;;31.63;10.82;;;;;;;10.27;15.06;102339.16;5031189;28;20477;-73
2022/03/11 10:46:01;;;;;;;20.27;10.18;;;;;;;9.77;15.67;102340.31;5011663;28;20073;-73
2022/03/11 10:48:42;;;;;;;23.17;10.85;;;;;;;10.86;14.82;102331.88;5014799;28;20038;-73
2022/03/11 10:51:11;;;;;;;21.25;10.63;;;;;;;9.09;15.54;102322.97;5020499;28;20046;-73
2022/03/11 10:53:39;;;;;;;28.30;10.63;;;;;;;8.85;15.96;102320.28;5023920;28;20115;-73
2022/03/11 10:56:07;;;;;;;27.70;9.30;;;;;;;9.65;15.23;102330.53;5010750;28;20408;-73
2022/03/11 10:58:36;;;;;;;19.92;10.43;;;;;;;9.53;15.53;102330.44;4993077;28;20058;-74
2022/03/11 11:01:03;;;;;;;21.85;10.27;;;;;;;9.26;15.94;102319.94;4992875;28;20445;-74
2022/03/11 11:03:31;;;;;;;24.02;10.75;;;;;;;9.97;15.25;102320.03;4992695;28;20042;-74
2022/03/11 11:05:57;;;;;;;21.15;10.85;;;;;;;10.47;15.05;102320.63;4996464;28;20133;-74
2022/03/11 11:08:24;;;;;;;20.92;9.10;;;;;;;10.61;14.71;102311.50;5012700;28;20049;-74
2022/03/11 11:10:51;;;;;;;23.48;9.57;;;;;;;10.50;14.78;102310.53;5007600;28;20045;-73
2022/03/11 11:13:17;;;;;;;25.85;10.27;;;;;;;8.54;15.65;102316.25;4993635;28;20138;-73
2022/03/11 11:15:44;;;;;;;17.75;8.85;;;;;;;7.83;16.16;102306.81;5012231;28;20125;-75
2022/03/11 11:18:14;;;;;;;18.73;9.50;;;;;;;9.44;15.67;102304.38;5008030;28;20423;-75
2022/03/11 11:20:50;;;;;;;34.60;9.60;;;;;;;8.03;16.02;102301.03;5007850;28;20112;-74
2022/03/11 11:23:17;;;;;;;26.13;9.48;;;;;;;9.31;15.58;102301.75;4992958;28;20053;-73